sensor_id;sensor_type;location;lat;lon;timestamp;pressure;altitude;pressure_sealevel;temperature;humidity
10127;BME280;13080;42.608;23.362;2022-11-14T00:01:57;93739.06;;;3.07;100.00
10127;BME280;13080;42.608;23.362;2022-11-14T00:04:25;93737.22;;;3.07;100.00
10127;BME280;13080;42.608;23.362;2022-11-14T00:06:52;93735.13;;;3.09;100.00
10127;BME280;13080;42.608;23.362;2022-11-14T00:09:18;93740.38;;;2.99;100.00
10127;BME280;13080;42.608;23.362;2022-11-14T00:11:45;93741.41;;;2.98;100.00
10127;BME280;13080;42.608;23.362;2022-11-14T00:14:12;93741.69;;;2.97;100.00
10127;BME280;13080;42.608;23.362;2022-11-14T00:16:39;93736.91;;;2.94;100.00
10127;BME280;13080;42.608;23.362;2022-11-14T00:19:05;93732.41;;;2.89;100.00
10127;BME280;13080;42.608;23.362;2022-11-14T00:21:34;93734.50;;;2.87;100.00
10127;BME280;13080;42.608;23.362;2022-11-14T00:24:00;93729.78;;;2.89;100.00
10127;BME280;13080;42.608;23.362;2022-11-14T00:26:27;93737.97;;;2.87;100.00
10127;BME280;13080;42.608;23.362;2022-11-14T00:28:54;93735.34;;;2.87;100.00
10127;BME280;13080;42.608;23.362;2022-11-14T00:31:21;93731.63;;;2.88;100.00
10127;BME280;13080;42.608;23.362;2022-11-14T00:33:48;93736.34;;;2.81;100.00
10127;BME280;13080;42.608;23.362;2022-11-14T00:36:14;93737.66;;;2.79;100.00
10127;BME280;13080;42.608;23.362;2022-11-14T00:38:42;93735.03;;;2.79;100.00
10127;BME280;13080;42.608;23.362;2022-11-14T00:41:09;93739.78;;;2.77;100.00
10127;BME280;13080;42.608;23.362;2022-11-14T00:43:36;93733.44;;;2.73;100.00
10127;BME280;13080;42.608;23.362;2022-11-14T00:46:03;93742.34;;;2.66;100.00
10127;BME280;13080;42.608;23.362;2022-11-14T00:48:29;93739.47;;;2.63;100.00
10127;BME280;13080;42.608;23.362;2022-11-14T00:50:56;93740.00;;;2.65;100.00
10127;BME280;13080;42.608;23.362;2022-11-14T00:53:23;93731.03;;;2.61;100.00
10127;BME280;13080;42.608;23.362;2022-11-14T00:55:51;93732.56;;;2.57;100.00
10127;BME280;13080;42.608;23.362;2022-11-14T00:58:18;93725.19;;;2.54;100.00
10127;BME280;13080;42.608;23.362;2022-11-14T01:00:45;93728.38;;;2.56;100.00
10127;BME280;13080;42.608;23.362;2022-11-14T01:03:11;93722.28;;;2.50;100.00
10127;BME280;13080;42.608;23.362;2022-11-14T01:05:42;93732.03;;;2.49;100.00
10127;BME280;13080;42.608;23.362;2022-11-14T01:08:10;93734.38;;;2.46;100.00
10127;BME280;13080;42.608;23.362;2022-11-14T01:10:38;93723.84;;;2.51;100.00
10127;BME280;13080;42.608;23.362;2022-11-14T01:13:07;93724.91;;;2.50;100.00
10127;BME280;13080;42.608;23.362;2022-11-14T01:15:37;93728.88;;;2.53;100.00
10127;BME280;13080;42.608;23.362;2022-11-14T01:18:04;93724.13;;;2.49;100.00
10127;BME280;13080;42.608;23.362;2022-11-14T01:20:31;93728.88;;;2.53;100.00
10127;BME280;13080;42.608;23.362;2022-11-14T01:22:58;93720.19;;;2.57;100.00
10127;BME280;13080;42.608;23.362;2022-11-14T01:25:24;93715.94;;;2.51;100.00
10127;BME280;13080;42.608;23.362;2022-11-14T01:27:51;93720.66;;;2.39;100.00
10127;BME280;13080;42.608;23.362;2022-11-14T01:30:19;93711.44;;;2.41;100.00
10127;BME280;13080;42.608;23.362;2022-11-14T01:32:46;93709.34;;;2.43;100.00
10127;BME280;13080;42.608;23.362;2022-11-14T01:35:13;93705.41;;;2.51;100.00
10127;BME280;13080;42.608;23.362;2022-11-14T01:37:39;93709.66;;;2.52;100.00
10127;BME280;13080;42.608;23.362;2022-11-14T01:40:07;93702.00;;;2.50;100.00
10127;BME280;13080;42.608;23.362;2022-11-14T01:42:34;93700.13;;;2.51;100.00
10127;BME280;13080;42.608;23.362;2022-11-14T01:45:44;93695.41;;;2.48;100.00
10127;BME280;13080;42.608;23.362;2022-11-14T01:48:13;93695.41;;;2.48;100.00
10127;BME280;13080;42.608;23.362;2022-11-14T01:50:43;93684.59;;;2.44;100.00
10127;BME280;13080;42.608;23.362;2022-11-14T01:53:10;93691.22;;;2.57;100.00
10127;BME280;13080;42.608;23.362;2022-11-14T01:55:36;93689.13;;;2.59;100.00
10127;BME280;13080;42.608;23.362;2022-11-14T01:58:03;93686.47;;;2.59;100.00
10127;BME280;13080;42.608;23.362;2022-11-14T02:00:30;93687.78;;;2.52;100.00
10127;BME280;13080;42.608;23.362;2022-11-14T02:02:59;93684.34;;;2.51;100.00
10127;BME280;13080;42.608;23.362;2022-11-14T02:05:26;93689.34;;;2.53;100.00
10127;BME280;13080;42.608;23.362;2022-11-14T02:07:53;93672.22;;;2.55;100.00
10127;BME280;13080;42.608;23.362;2022-11-14T02:10:20;93688.03;;;2.50;100.00
10127;BME280;13080;42.608;23.362;2022-11-14T02:12:48;93679.91;;;2.62;100.00
10127;BME280;13080;42.608;23.362;2022-11-14T02:15:15;93681.47;;;2.58;100.00
10127;BME280;13080;42.608;23.362;2022-11-14T02:17:43;93667.78;;;2.56;100.00
10127;BME280;13080;42.608;23.362;2022-11-14T02:20:19;93677.25;;;2.57;100.00
10127;BME280;13080;42.608;23.362;2022-11-14T02:22:46;93674.34;;;2.53;100.00
10127;BME280;13080;42.608;23.362;2022-11-14T02:25:15;93673.00;;;2.50;100.00
10127;BME280;13080;42.608;23.362;2022-11-14T02:27:43;93682.75;;;2.50;100.00
10127;BME280;13080;42.608;23.362;2022-11-14T02:30:12;93681.44;;;2.47;100.00
10127;BME280;13080;42.608;23.362;2022-11-14T02:32:40;93681.69;;;2.46;100.00
10127;BME280;13080;42.608;23.362;2022-11-14T02:35:07;93676.41;;;2.46;100.00
10127;BME280;13080;42.608;23.362;2022-11-14T02:37:36;93677.50;;;2.50;100.00
10127;BME280;13080;42.608;23.362;2022-11-14T02:40:05;93673.50;;;2.37;100.00
10127;BME280;13080;42.608;23.362;2022-11-14T02:42:31;93670.56;;;2.28;100.00
10127;BME280;13080;42.608;23.362;2022-11-14T02:44:58;93665.53;;;2.22;100.00
10127;BME280;13080;42.608;23.362;2022-11-14T02:47:25;93665.75;;;2.15;100.00
10127;BME280;13080;42.608;23.362;2022-11-14T02:49:52;93666.28;;;2.17;100.00
10127;BME280;13080;42.608;23.362;2022-11-14T02:52:18;93662.34;;;2.15;100.00
10127;BME280;13080;42.608;23.362;2022-11-14T02:54:47;93661.06;;;2.22;100.00
10127;BME280;13080;42.608;23.362;2022-11-14T02:57:13;93657.63;;;2.22;100.00
10127;BME280;13080;42.608;23.362;2022-11-14T02:59:40;93652.63;;;2.20;100.00
10127;BME280;13080;42.608;23.362;2022-11-14T03:02:07;93663.16;;;2.20;100.00
10127;BME280;13080;42.608;23.362;2022-11-14T03:04:33;93655.28;;;2.25;100.00
10127;BME280;13080;42.608;23.362;2022-11-14T03:07:00;93656.84;;;2.21;100.00
10127;BME280;13080;42.608;23.362;2022-11-14T03:09:27;93652.09;;;2.23;100.00
10127;BME280;13080;42.608;23.362;2022-11-14T03:11:55;93656.06;;;2.21;100.00
10127;BME280;13080;42.608;23.362;2022-11-14T03:14:22;93658.16;;;2.19;100.00
10127;BME280;13080;42.608;23.362;2022-11-14T03:16:48;93648.94;;;2.21;100.00
10127;BME280;13080;42.608;23.362;2022-11-14T03:19:15;93662.16;;;2.26;100.00
10127;BME280;13080;42.608;23.362;2022-11-14T03:21:42;93656.34;;;2.24;100.00
10127;BME280;13080;42.608;23.362;2022-11-14T03:24:09;93655.03;;;2.27;100.00
10127;BME280;13080;42.608;23.362;2022-11-14T03:26:35;93653.66;;;2.19;100.00
10127;BME280;13080;42.608;23.362;2022-11-14T03:29:04;93653.66;;;2.19;100.00
10127;BME280;13080;42.608;23.362;2022-11-14T03:31:31;93646.28;;;2.16;100.00
10127;BME280;13080;42.608;23.362;2022-11-14T03:33:57;93649.47;;;2.23;100.00
10127;BME280;13080;42.608;23.362;2022-11-14T03:36:24;93648.69;;;2.23;100.00
10127;BME280;13080;42.608;23.362;2022-11-14T03:38:51;93649.22;;;2.25;100.00
10127;BME280;13080;42.608;23.362;2022-11-14T03:41:17;93647.91;;;2.22;100.00
10127;BME280;13080;42.608;23.362;2022-11-14T03:43:44;93647.06;;;2.17;100.00
10127;BME280;13080;42.608;23.362;2022-11-14T03:46:12;93654.44;;;2.15;100.00
10127;BME280;13080;42.608;23.362;2022-11-14T03:48:39;93646.78;;;2.08;100.00
10127;BME280;13080;42.608;23.362;2022-11-14T03:51:06;93654.13;;;2.06;100.00
10127;BME280;13080;42.608;23.362;2022-11-14T03:53:32;93650.16;;;1.98;100.00
10127;BME280;13080;42.608;23.362;2022-11-14T03:55:59;93654.63;;;1.98;100.00
10127;BME280;13080;42.608;23.362;2022-11-14T03:58:26;93654.59;;;1.93;100.00
10127;BME280;13080;42.608;23.362;2022-11-14T04:00:52;93648.03;;;1.95;100.00
10127;BME280;13080;42.608;23.362;2022-11-14T04:03:22;93640.63;;;1.87;100.00
10127;BME280;13080;42.608;23.362;2022-11-14T04:05:49;93649.88;;;1.95;100.00
10127;BME280;13080;42.608;23.362;2022-11-14T04:08:16;93651.97;;;1.93;100.00
10127;BME280;13080;42.608;23.362;2022-11-14T04:10:45;93648.53;;;1.92;100.00
10127;BME280;13080;42.608;23.362;2022-11-14T04:13:12;93643.03;;;1.94;100.00
10127;BME280;13080;42.608;23.362;2022-11-14T04:15:39;93638.78;;;1.93;100.00
10127;BME280;13080;42.608;23.362;2022-11-14T04:18:06;93647.22;;;1.95;100.00
10127;BME280;13080;42.608;23.362;2022-11-14T04:20:34;93644.09;;;1.98;100.00
10127;BME280;13080;42.608;23.362;2022-11-14T04:23:01;93642.81;;;2.00;100.00
10127;BME280;13080;42.608;23.362;2022-11-14T04:25:27;93634.91;;;2.00;100.00
10127;BME280;13080;42.608;23.362;2022-11-14T04:27:54;93643.59;;;2.01;100.00
10127;BME280;13080;42.608;23.362;2022-11-14T04:30:21;93639.63;;;1.98;100.00
10127;BME280;13080;42.608;23.362;2022-11-14T04:32:48;93636.97;;;1.93;100.00
10127;BME280;13080;42.608;23.362;2022-11-14T04:35:14;93638.56;;;1.94;100.00
10127;BME280;13080;42.608;23.362;2022-11-14T04:37:43;93635.16;;;1.99;100.00
10127;BME280;13080;42.608;23.362;2022-11-14T04:40:10;93629.66;;;2.11;100.00
10127;BME280;13080;42.608;23.362;2022-11-14T04:42:37;93631.75;;;2.03;100.00
10127;BME280;13080;42.608;23.362;2022-11-14T04:45:05;93628.09;;;2.10;100.00
10127;BME280;13080;42.608;23.362;2022-11-14T04:47:32;93631.28;;;2.17;100.00
10127;BME280;13080;42.608;23.362;2022-11-14T04:49:58;93635.53;;;2.28;100.00
10127;BME280;13080;42.608;23.362;2022-11-14T04:52:25;93639.00;;;2.34;100.00
10127;BME280;13080;42.608;23.362;2022-11-14T04:54:53;93629.78;;;2.36;100.00
10127;BME280;13080;42.608;23.362;2022-11-14T04:57:20;93630.03;;;2.35;100.00
10127;BME280;13080;42.608;23.362;2022-11-14T04:59:47;93634.81;;;2.38;100.00
10127;BME280;13080;42.608;23.362;2022-11-14T05:02:13;93623.44;;;2.32;100.00
10127;BME280;13080;42.608;23.362;2022-11-14T05:04:40;93628.72;;;2.32;100.00
10127;BME280;13080;42.608;23.362;2022-11-14T05:07:08;93626.06;;;2.27;100.00
10127;BME280;13080;42.608;23.362;2022-11-14T05:09:35;93630.56;;;2.37;100.00
10127;BME280;13080;42.608;23.362;2022-11-14T05:12:04;93626.09;;;2.37;100.00
10127;BME280;13080;42.608;23.362;2022-11-14T05:14:31;93633.72;;;2.39;100.00
10127;BME280;13080;42.608;23.362;2022-11-14T05:16:58;93623.50;;;2.42;100.00
10127;BME280;13080;42.608;23.362;2022-11-14T05:19:25;93626.13;;;2.47;100.00
10127;BME280;13080;42.608;23.362;2022-11-14T05:21:51;93628.75;;;2.47;100.00
10127;BME280;13080;42.608;23.362;2022-11-14T05:24:18;93638.78;;;2.50;100.00
10127;BME280;13080;42.608;23.362;2022-11-14T05:26:45;93641.41;;;2.50;100.00
10127;BME280;13080;42.608;23.362;2022-11-14T05:29:13;93647.22;;;2.53;100.00
10127;BME280;13080;42.608;23.362;2022-11-14T05:31:40;93640.88;;;2.48;100.00
10127;BME280;13080;42.608;23.362;2022-11-14T05:34:06;93641.41;;;2.45;100.00
10127;BME280;13080;42.608;23.362;2022-11-14T05:36:33;93644.81;;;2.41;100.00
10127;BME280;13080;42.608;23.362;2022-11-14T05:39:00;93641.69;;;2.49;100.00
10127;BME280;13080;42.608;23.362;2022-11-14T05:41:26;93645.53;;;2.26;100.00
10127;BME280;13080;42.608;23.362;2022-11-14T05:43:53;93640.78;;;2.18;100.00
10127;BME280;13080;42.608;23.362;2022-11-14T05:46:21;93644.69;;;2.15;100.00
10127;BME280;13080;42.608;23.362;2022-11-14T05:48:48;93641.78;;;2.06;100.00
10127;BME280;13080;42.608;23.362;2022-11-14T05:51:15;93642.56;;;2.07;100.00
10127;BME280;13080;42.608;23.362;2022-11-14T05:53:41;93639.16;;;2.06;100.00
10127;BME280;13080;42.608;23.362;2022-11-14T05:56:10;93636.44;;;1.91;100.00
10127;BME280;13080;42.608;23.362;2022-11-14T05:58:37;93643.28;;;1.92;100.00
10127;BME280;13080;42.608;23.362;2022-11-14T06:01:06;93647.19;;;1.84;100.00
10127;BME280;13080;42.608;23.362;2022-11-14T06:03:37;93644.25;;;1.76;100.00
10127;BME280;13080;42.608;23.362;2022-11-14T06:06:06;93645.88;;;1.87;100.00
10127;BME280;13080;42.608;23.362;2022-11-14T06:08:34;93652.41;;;1.79;100.00
10127;BME280;13080;42.608;23.362;2022-11-14T06:11:02;93658.38;;;1.59;100.00
10127;BME280;13080;42.608;23.362;2022-11-14T06:13:29;93658.53;;;1.48;100.00
10127;BME280;13080;42.608;23.362;2022-11-14T06:15:57;93661.47;;;1.51;100.00
10127;BME280;13080;42.608;23.362;2022-11-14T06:18:25;93654.78;;;1.38;100.00
10127;BME280;13080;42.608;23.362;2022-11-14T06:20:53;93660.81;;;1.39;100.00
10127;BME280;13080;42.608;23.362;2022-11-14T06:23:24;93668.72;;;1.39;100.00
10127;BME280;13080;42.608;23.362;2022-11-14T06:25:50;93665.88;;;1.45;100.00
10127;BME280;13080;42.608;23.362;2022-11-14T06:28:17;93661.69;;;1.50;100.00
10127;BME280;13080;42.608;23.362;2022-11-14T06:30:44;93659.13;;;1.55;100.00
10127;BME280;13080;42.608;23.362;2022-11-14T06:33:11;93666.28;;;1.64;100.00
10127;BME280;13080;42.608;23.362;2022-11-14T06:35:38;93662.13;;;1.74;100.00
10127;BME280;13080;42.608;23.362;2022-11-14T06:38:06;93661.59;;;1.77;100.00
10127;BME280;13080;42.608;23.362;2022-11-14T06:40:33;93660.06;;;1.81;100.00
10127;BME280;13080;42.608;23.362;2022-11-14T06:42:59;93650.63;;;1.90;100.00
10127;BME280;13080;42.608;23.362;2022-11-14T06:45:26;93653.66;;;2.14;100.00
10127;BME280;13080;42.608;23.362;2022-11-14T06:47:57;93659.63;;;1.99;100.00
10127;BME280;13080;42.608;23.362;2022-11-14T06:50:23;93664.09;;;1.99;100.00
10127;BME280;13080;42.608;23.362;2022-11-14T06:52:50;93656.50;;;2.02;100.00
10127;BME280;13080;42.608;23.362;2022-11-14T06:55:18;93649.94;;;2.10;100.00
10127;BME280;13080;42.608;23.362;2022-11-14T06:57:51;93661.88;;;2.28;100.00
10127;BME280;13080;42.608;23.362;2022-11-14T07:00:19;93642.72;;;2.43;100.00
10127;BME280;13080;42.608;23.362;2022-11-14T07:02:45;93641.16;;;2.52;100.00
10127;BME280;13080;42.608;23.362;2022-11-14T07:05:12;93636.97;;;2.66;100.00
10127;BME280;13080;42.608;23.362;2022-11-14T07:07:39;93644.91;;;2.77;100.00
10127;BME280;13080;42.608;23.362;2022-11-14T07:10:06;93649.38;;;2.86;100.00
10127;BME280;13080;42.608;23.362;2022-11-14T07:12:34;93640.97;;;2.95;100.00
10127;BME280;13080;42.608;23.362;2022-11-14T07:15:01;93638.34;;;2.89;100.00
10127;BME280;13080;42.608;23.362;2022-11-14T07:17:28;93646.78;;;2.97;100.00
10127;BME280;13080;42.608;23.362;2022-11-14T07:19:55;93647.03;;;3.00;100.00
10127;BME280;13080;42.608;23.362;2022-11-14T07:22:22;93644.69;;;3.04;100.00
10127;BME280;13080;42.608;23.362;2022-11-14T07:24:48;93651.00;;;2.87;100.00
10127;BME280;13080;42.608;23.362;2022-11-14T07:27:15;93644.13;;;2.76;100.00
10127;BME280;13080;42.608;23.362;2022-11-14T07:29:43;93647.28;;;2.83;100.00
10127;BME280;13080;42.608;23.362;2022-11-14T07:32:10;93651.00;;;2.92;100.00
10127;BME280;13080;42.608;23.362;2022-11-14T07:34:37;93652.59;;;2.99;100.00
10127;BME280;13080;42.608;23.362;2022-11-14T07:37:03;93651.78;;;2.98;100.00
10127;BME280;13080;42.608;23.362;2022-11-14T07:39:30;93641.75;;;3.00;100.00
10127;BME280;13080;42.608;23.362;2022-11-14T07:41:57;93638.34;;;3.05;100.00
10127;BME280;13080;42.608;23.362;2022-11-14T07:44:23;93638.38;;;3.25;100.00
10127;BME280;13080;42.608;23.362;2022-11-14T07:46:51;93636.00;;;3.39;100.00
10127;BME280;13080;42.608;23.362;2022-11-14T07:49:18;93636.50;;;3.46;100.00
10127;BME280;13080;42.608;23.362;2022-11-14T07:51:45;93641.53;;;3.38;100.00
10127;BME280;13080;42.608;23.362;2022-11-14T07:54:12;93637.03;;;3.33;100.00
10127;BME280;13080;42.608;23.362;2022-11-14T07:56:38;93630.72;;;3.39;100.00
10127;BME280;13080;42.608;23.362;2022-11-14T07:59:05;93628.06;;;3.44;100.00
10127;BME280;13080;42.608;23.362;2022-11-14T08:01:32;93640.97;;;3.51;100.00
10127;BME280;13080;42.608;23.362;2022-11-14T08:04:00;93637.28;;;3.47;100.00
10127;BME280;13080;42.608;23.362;2022-11-14T08:06:27;93638.88;;;3.43;100.00
10127;BME280;13080;42.608;23.362;2022-11-14T08:08:54;93634.13;;;3.40;100.00
10127;BME280;13080;42.608;23.362;2022-11-14T08:11:20;93636.78;;;3.40;100.00
10127;BME280;13080;42.608;23.362;2022-11-14T08:14:07;93640.72;;;3.52;100.00
10127;BME280;13080;42.608;23.362;2022-11-14T08:16:34;93633.06;;;3.51;100.00
10127;BME280;13080;42.608;23.362;2022-11-14T08:19:02;93636.50;;;3.46;100.00
10127;BME280;13080;42.608;23.362;2022-11-14T08:21:29;93632.56;;;3.44;100.00
10127;BME280;13080;42.608;23.362;2022-11-14T08:23:55;93635.97;;;3.60;100.00
10127;BME280;13080;42.608;23.362;2022-11-14T08:26:22;93630.13;;;3.73;100.00
10127;BME280;13080;42.608;23.362;2022-11-14T08:28:51;93631.19;;;3.77;100.00
10127;BME280;13080;42.608;23.362;2022-11-14T08:31:19;93630.91;;;3.84;100.00
10127;BME280;13080;42.608;23.362;2022-11-14T08:33:47;93631.44;;;3.86;100.00
10127;BME280;13080;42.608;23.362;2022-11-14T08:36:16;93626.66;;;3.88;100.00
10127;BME280;13080;42.608;23.362;2022-11-14T08:38:42;93624.59;;;3.80;100.00
10127;BME280;13080;42.608;23.362;2022-11-14T08:41:09;93622.72;;;3.90;100.00
10127;BME280;13080;42.608;23.362;2022-11-14T08:43:36;93623.97;;;4.03;100.00
10127;BME280;13080;42.608;23.362;2022-11-14T08:46:04;93627.38;;;4.14;100.00
10127;BME280;13080;42.608;23.362;2022-11-14T08:48:31;93627.16;;;4.00;100.00
10127;BME280;13080;42.608;23.362;2022-11-14T08:51:01;93625.31;;;4.01;100.00
10127;BME280;13080;42.608;23.362;2022-11-14T08:53:29;93622.06;;;4.19;100.00
10127;BME280;13080;42.608;23.362;2022-11-14T08:55:56;93625.75;;;4.28;100.00
10127;BME280;13080;42.608;23.362;2022-11-14T08:58:23;93622.31;;;4.33;100.00
10127;BME280;13080;42.608;23.362;2022-11-14T09:00:49;93618.63;;;4.24;100.00
10127;BME280;13080;42.608;23.362;2022-11-14T09:03:16;93615.19;;;4.28;100.00
10127;BME280;13080;42.608;23.362;2022-11-14T09:05:50;93610.94;;;4.32;100.00
10127;BME280;13080;42.608;23.362;2022-11-14T09:08:16;93610.94;;;4.37;100.00
10127;BME280;13080;42.608;23.362;2022-11-14T09:10:44;93607.50;;;4.32;100.00
10127;BME280;13080;42.608;23.362;2022-11-14T09:13:11;93599.50;;;4.47;100.00
10127;BME280;13080;42.608;23.362;2022-11-14T09:15:38;93598.91;;;4.61;100.00
10127;BME280;13080;42.608;23.362;2022-11-14T09:18:05;93591.28;;;4.54;100.00
10127;BME280;13080;42.608;23.362;2022-11-14T09:20:32;93593.66;;;4.50;100.00
10127;BME280;13080;42.608;23.362;2022-11-14T09:22:59;93585.94;;;4.64;100.00
10127;BME280;13080;42.608;23.362;2022-11-14T09:25:26;93585.91;;;4.69;100.00
10127;BME280;13080;42.608;23.362;2022-11-14T09:27:55;93583.91;;;4.90;100.00
10127;BME280;13080;42.608;23.362;2022-11-14T09:30:22;93579.44;;;4.86;100.00
10127;BME280;13080;42.608;23.362;2022-11-14T09:32:49;93581.53;;;4.94;100.00
10127;BME280;13080;42.608;23.362;2022-11-14T09:35:16;93576.97;;;4.99;100.00
10127;BME280;13080;42.608;23.362;2022-11-14T09:37:42;93571.97;;;4.98;100.00
10127;BME280;13080;42.608;23.362;2022-11-14T09:40:11;93580.59;;;5.09;100.00
10127;BME280;13080;42.608;23.362;2022-11-14T09:42:56;93575.47;;;5.23;100.00
10127;BME280;13080;42.608;23.362;2022-11-14T09:45:46;93570.34;;;5.31;99.92
10127;BME280;13080;42.608;23.362;2022-11-14T09:48:17;93577.31;;;5.22;100.00
10127;BME280;13080;42.608;23.362;2022-11-14T09:50:47;93577.19;;;5.37;98.29
10127;BME280;13080;42.608;23.362;2022-11-14T09:53:22;93572.22;;;5.31;99.43
10127;BME280;13080;42.608;23.362;2022-11-14T09:55:51;93566.19;;;5.25;99.57
10127;BME280;13080;42.608;23.362;2022-11-14T09:58:20;93562.78;;;5.25;99.92
10127;BME280;13080;42.608;23.362;2022-11-14T10:00:51;93558.78;;;5.51;97.56
10127;BME280;13080;42.608;23.362;2022-11-14T10:03:41;93558.34;;;5.44;98.32
10127;BME280;13080;42.608;23.362;2022-11-14T10:06:21;93554.91;;;5.44;98.08
10127;BME280;13080;42.608;23.362;2022-11-14T10:09:01;93555.69;;;5.44;98.66
10127;BME280;13080;42.608;23.362;2022-11-14T10:11:34;93550.53;;;5.58;97.87
10127;BME280;13080;42.608;23.362;2022-11-14T10:17:16;93535.25;;;5.74;97.22
10127;BME280;13080;42.608;23.362;2022-11-14T10:19:48;93535.00;;;5.75;97.66
10127;BME280;13080;42.608;23.362;2022-11-14T10:22:28;93534.59;;;5.87;96.56
10127;BME280;13080;42.608;23.362;2022-11-14T10:25:12;93526.84;;;5.96;96.26
10127;BME280;13080;42.608;23.362;2022-11-14T10:27:58;93523.84;;;6.02;96.02
10127;BME280;13080;42.608;23.362;2022-11-14T10:30:34;93526.72;;;6.06;96.42
10127;BME280;13080;42.608;23.362;2022-11-14T10:33:26;93521.63;;;6.10;96.33
10127;BME280;13080;42.608;23.362;2022-11-14T10:36:04;93515.09;;;6.26;95.07
10127;BME280;13080;42.608;23.362;2022-11-14T10:38:38;93516.50;;;6.18;95.40
10127;BME280;13080;42.608;23.362;2022-11-14T10:41:08;93507.91;;;6.27;95.71
10127;BME280;13080;42.608;23.362;2022-11-14T10:43:38;93511.06;;;6.48;94.90
10127;BME280;13080;42.608;23.362;2022-11-14T10:46:11;93507.19;;;6.59;94.17
10127;BME280;13080;42.608;23.362;2022-11-14T10:48:43;93508.88;;;6.87;92.56
10127;BME280;13080;42.608;23.362;2022-11-14T10:51:20;93496.50;;;7.16;91.46
10127;BME280;13080;42.608;23.362;2022-11-14T10:53:52;93500.25;;;7.28;90.59
10127;BME280;13080;42.608;23.362;2022-11-14T10:56:20;93492.09;;;7.25;91.21
10127;BME280;13080;42.608;23.362;2022-11-14T10:58:47;93483.72;;;7.18;92.41
10127;BME280;13080;42.608;23.362;2022-11-14T11:01:35;93490.84;;;7.36;91.11
10127;BME280;13080;42.608;23.362;2022-11-14T11:04:28;93483.78;;;7.59;89.69
10127;BME280;13080;42.608;23.362;2022-11-14T11:06:57;93481.31;;;7.77;88.00
10127;BME280;13080;42.608;23.362;2022-11-14T11:09:59;93473.56;;;7.80;88.34
10127;BME280;13080;42.608;23.362;2022-11-14T11:12:47;93480.25;;;7.91;87.00
10127;BME280;13080;42.608;23.362;2022-11-14T11:15:15;93483.97;;;7.90;87.82
10127;BME280;13080;42.608;23.362;2022-11-14T11:17:53;93481.91;;;8.01;86.91
10127;BME280;13080;42.608;23.362;2022-11-14T11:20:25;93477.16;;;8.12;85.70
10127;BME280;13080;42.608;23.362;2022-11-14T11:23:01;93475.38;;;8.21;85.39
10127;BME280;13080;42.608;23.362;2022-11-14T11:25:30;93469.97;;;8.12;86.53
10127;BME280;13080;42.608;23.362;2022-11-14T11:28:10;93472.63;;;8.12;86.62
10127;BME280;13080;42.608;23.362;2022-11-14T11:30:38;93475.94;;;8.32;84.79
10127;BME280;13080;42.608;23.362;2022-11-14T11:33:16;93474.97;;;8.42;84.31
10127;BME280;13080;42.608;23.362;2022-11-14T11:35:44;93467.19;;;8.45;84.14
10127;BME280;13080;42.608;23.362;2022-11-14T11:38:13;93471.69;;;8.45;84.54
10127;BME280;13080;42.608;23.362;2022-11-14T11:40:42;93469.03;;;8.45;83.82
10127;BME280;13080;42.608;23.362;2022-11-14T11:43:14;93472.00;;;8.43;83.55
10127;BME280;13080;42.608;23.362;2022-11-14T11:45:45;93471.50;;;8.41;84.11
10127;BME280;13080;42.608;23.362;2022-11-14T11:48:16;93463.81;;;8.40;84.75
10127;BME280;13080;42.608;23.362;2022-11-14T11:50:46;93456.97;;;8.61;82.99
10127;BME280;13080;42.608;23.362;2022-11-14T11:53:17;93457.69;;;8.53;84.08
10127;BME280;13080;42.608;23.362;2022-11-14T11:55:48;93463.13;;;8.48;85.13
10127;BME280;13080;42.608;23.362;2022-11-14T11:58:20;93455.22;;;8.57;85.09
10127;BME280;13080;42.608;23.362;2022-11-14T12:00:50;93450.75;;;8.66;83.04
10127;BME280;13080;42.608;23.362;2022-11-14T12:03:19;93451.72;;;8.70;82.65
10127;BME280;13080;42.608;23.362;2022-11-14T12:05:53;93453.09;;;8.67;82.79
10127;BME280;13080;42.608;23.362;2022-11-14T12:08:25;93454.31;;;8.61;83.14
10127;BME280;13080;42.608;23.362;2022-11-14T12:10:56;93445.47;;;8.52;84.38
10127;BME280;13080;42.608;23.362;2022-11-14T12:13:56;93446.41;;;8.70;83.95
10127;BME280;13080;42.608;23.362;2022-11-14T12:16:34;93443.59;;;8.75;83.49
10127;BME280;13080;42.608;23.362;2022-11-14T12:19:19;93437.97;;;8.77;83.52
10127;BME280;13080;42.608;23.362;2022-11-14T12:22:10;93438.56;;;8.96;82.35
10127;BME280;13080;42.608;23.362;2022-11-14T12:25:00;93438.56;;;8.96;82.67
10127;BME280;13080;42.608;23.362;2022-11-14T12:27:55;93433.78;;;9.07;81.69
10127;BME280;13080;42.608;23.362;2022-11-14T12:30:28;93430.00;;;8.99;82.07
10127;BME280;13080;42.608;23.362;2022-11-14T12:32:59;93432.91;;;9.20;80.84
10127;BME280;13080;42.608;23.362;2022-11-14T12:35:30;93427.84;;;9.10;81.91
10127;BME280;13080;42.608;23.362;2022-11-14T12:38:00;93422.22;;;9.11;81.84
10127;BME280;13080;42.608;23.362;2022-11-14T12:40:31;93419.03;;;9.01;81.80
10127;BME280;13080;42.608;23.362;2022-11-14T12:43:00;93423.19;;;9.15;81.96
10127;BME280;13080;42.608;23.362;2022-11-14T12:45:55;93418.50;;;9.21;81.19
10127;BME280;13080;42.608;23.362;2022-11-14T12:48:29;93420.81;;;9.14;82.08
10127;BME280;13080;42.608;23.362;2022-11-14T12:50:57;93424.25;;;9.14;82.24
10127;BME280;13080;42.608;23.362;2022-11-14T12:53:47;93423.47;;;9.14;82.37
10127;BME280;13080;42.608;23.362;2022-11-14T12:59:27;93420.34;;;9.12;83.06
10127;BME280;13080;42.608;23.362;2022-11-14T13:02:10;93415.50;;;9.14;83.40
10127;BME280;13080;42.608;23.362;2022-11-14T13:04:55;93408.75;;;9.16;83.20
10127;BME280;13080;42.608;23.362;2022-11-14T13:07:32;93408.28;;;9.14;83.80
10127;BME280;13080;42.608;23.362;2022-11-14T13:10:13;93403.75;;;9.15;83.73
10127;BME280;13080;42.608;23.362;2022-11-14T13:12:41;93402.81;;;9.11;83.45